createdAt,value
2023-01-29T00:09:41.138Z,3.50
2023-01-29T00:14:38.421Z,3.60
2023-01-29T00:24:27.327Z,3.40
2023-01-29T00:54:57.892Z,4.60
2023-01-29T00:57:27.067Z,3.40
2023-01-29T01:05:14.146Z,4.40
2023-01-29T01:07:41.369Z,4.60
2023-01-29T01:10:22.365Z,4.40
2023-01-29T01:12:52.012Z,4.40
2023-01-29T01:30:14.109Z,3.10
2023-01-29T01:32:42.574Z,4.30
2023-01-29T01:35:11.328Z,4.30
2023-01-29T01:40:12.735Z,4.50
2023-01-29T01:42:40.379Z,6.40
2023-01-29T01:45:17.585Z,4.70
2023-01-29T01:47:49.094Z,4.30
2023-01-29T01:50:22.173Z,4.30
2023-01-29T01:52:52.884Z,4.40
2023-01-29T01:55:24.877Z,4.40
2023-01-29T01:57:57.818Z,4.40
2023-01-29T02:00:27.070Z,4.40
2023-01-29T02:03:13.603Z,4.30
2023-01-29T02:06:00.209Z,3.50
2023-01-29T02:09:06.570Z,4.40
2023-01-29T02:11:36.497Z,3.30
2023-01-29T02:22:12.678Z,4.50
2023-01-29T02:25:09.271Z,4.40
2023-01-29T02:27:48.597Z,4.20
2023-01-29T02:30:28.539Z,4.40
2023-01-29T02:33:15.650Z,4.30
2023-01-29T02:35:54.141Z,4.50
2023-01-29T02:38:39.013Z,3.80
2023-01-29T02:41:30.125Z,4.60
2023-01-29T02:44:11.404Z,4.60
2023-01-29T02:47:03.952Z,4.40
2023-01-29T02:49:49.831Z,3.60
2023-01-29T02:52:23.265Z,4.50
2023-01-29T02:55:04.800Z,5.20
2023-01-29T02:57:39.574Z,5.60
2023-01-29T03:00:24.407Z,4.50
2023-01-29T03:03:11.869Z,4.40
2023-01-29T03:08:16.704Z,4.50
2023-01-29T03:11:01.532Z,3.70
2023-01-29T03:13:49.510Z,4.70
2023-01-29T03:16:39.628Z,5.90
2023-01-29T03:19:12.333Z,4.60
2023-01-29T03:21:59.445Z,4.60
2023-01-29T03:25:14.318Z,4.50
2023-01-29T03:28:17.115Z,4.40
2023-01-29T03:31:12.958Z,4.40
2023-01-29T03:33:50.688Z,4.30
2023-01-29T03:36:24.985Z,4.50
2023-01-29T03:38:51.992Z,5.00
2023-01-29T03:41:31.347Z,4.30
2023-01-29T03:44:43.474Z,4.20
2023-01-29T03:47:48.483Z,4.30
2023-01-29T03:50:48.323Z,4.00
2023-01-29T03:53:43.929Z,4.10
2023-01-29T03:56:49.861Z,4.00
2023-01-29T03:59:39.698Z,4.00
2023-01-29T04:02:42.610Z,4.10
2023-01-29T04:05:16.961Z,4.10
2023-01-29T04:08:10.340Z,3.50
2023-01-29T04:10:40.139Z,4.00
2023-01-29T04:13:10.363Z,4.10
2023-01-29T04:15:45.189Z,4.00
2023-01-29T04:23:27.749Z,3.90
2023-01-29T04:26:31.174Z,4.00
2023-01-29T04:29:30.173Z,4.80
2023-01-29T04:32:10.762Z,3.90
2023-01-29T04:35:15.748Z,2.70
2023-01-29T04:37:54.020Z,4.00
2023-01-29T04:40:32.142Z,4.40
2023-01-29T04:43:13.435Z,3.90
2023-01-29T04:46:03.683Z,3.90
2023-01-29T04:51:23.294Z,4.00
2023-01-29T04:54:19.252Z,3.90
2023-01-29T04:57:10.762Z,3.90
2023-01-29T04:59:45.500Z,4.00
2023-01-29T05:02:13.391Z,3.70
2023-01-29T05:04:41.801Z,4.00
2023-01-29T05:07:12.687Z,3.90
2023-01-29T05:12:10.133Z,5.10
2023-01-29T05:14:39.708Z,3.90
2023-01-29T05:17:14.794Z,3.90
2023-01-29T05:22:12.157Z,4.00
2023-01-29T05:47:04.045Z,3.00
2023-01-29T06:09:11.699Z,4.00
2023-01-29T06:14:05.991Z,3.50
2023-01-29T06:21:27.651Z,4.20
2023-01-29T07:01:17.541Z,4.00
2023-01-29T07:21:06.900Z,4.50
2023-01-29T07:23:34.779Z,4.10
2023-01-29T07:26:03.422Z,4.00
2023-01-29T07:30:58.834Z,4.10
2023-01-29T07:48:13.252Z,4.00
2023-01-29T07:50:40.959Z,4.10
2023-01-29T07:58:03.598Z,3.90
2023-01-29T08:00:31.787Z,4.10
2023-01-29T08:03:06.526Z,4.00
2023-01-29T08:05:34.104Z,3.90
2023-01-29T08:10:38.633Z,5.00
2023-01-29T08:13:06.656Z,4.00
2023-01-29T08:15:34.290Z,3.90
2023-01-29T08:18:02.844Z,3.30
2023-01-29T08:20:29.761Z,2.80
2023-01-29T08:23:10.157Z,4.10
2023-01-29T08:30:34.022Z,4.10
2023-01-29T08:37:59.242Z,3.00
2023-01-29T08:40:27.667Z,4.30
2023-01-29T08:43:03.161Z,4.20
2023-01-29T08:45:36.275Z,4.20
2023-01-29T08:52:59.702Z,3.00
2023-01-29T08:55:27.381Z,4.40
2023-01-29T09:00:22.146Z,4.60
2023-01-29T09:10:12.379Z,3.20
2023-01-29T09:15:07.191Z,3.80
2023-01-29T09:27:23.511Z,5.30
2023-01-29T09:42:48.423Z,5.20
2023-01-29T09:45:27.271Z,4.80
2023-01-29T09:47:58.994Z,4.80
2023-01-29T09:50:39.881Z,4.70
2023-01-29T09:53:36.820Z,4.70
2023-01-29T09:58:40.913Z,4.80
2023-01-29T10:01:19.760Z,4.90
2023-01-29T10:04:07.707Z,6.20
2023-01-29T10:06:53.540Z,4.90
2023-01-29T10:09:57.121Z,6.10
2023-01-29T10:15:42.216Z,5.30
2023-01-29T10:18:34.069Z,5.30
2023-01-29T10:21:12.865Z,5.80
2023-01-29T10:24:08.905Z,5.20
2023-01-29T10:29:07.576Z,5.00
2023-01-29T10:31:39.261Z,5.20
2023-01-29T10:34:11.034Z,5.20
2023-01-29T10:36:46.136Z,5.20
2023-01-29T10:39:25.343Z,5.10
2023-01-29T10:42:13.587Z,6.40
2023-01-29T10:50:09.029Z,5.20
2023-01-29T10:52:53.283Z,5.30
2023-01-29T10:55:39.205Z,5.20
2023-01-29T11:03:28.316Z,5.20
2023-01-29T11:06:13.980Z,5.30
2023-01-29T11:08:44.209Z,5.30
2023-01-29T11:13:47.909Z,5.30
2023-01-29T11:19:00.378Z,5.40
2023-01-29T11:21:29.010Z,5.30
2023-01-29T11:24:16.799Z,5.90
2023-01-29T11:26:46.056Z,5.40
2023-01-29T11:29:43.005Z,4.50
2023-01-29T11:32:30.919Z,5.40
2023-01-29T11:35:19.316Z,4.50
2023-01-29T11:37:47.468Z,5.50
2023-01-29T11:40:20.637Z,4.70
2023-01-29T11:45:30.003Z,5.40
2023-01-29T11:50:28.413Z,5.40
2023-01-29T11:52:55.766Z,5.10
2023-01-29T11:55:48.284Z,5.40
2023-01-29T11:58:27.394Z,5.40
2023-01-29T12:00:55.615Z,5.30
2023-01-29T12:03:35.129Z,5.40
2023-01-29T12:06:32.157Z,5.30
2023-01-29T12:09:01.505Z,5.30
2023-01-29T12:11:33.747Z,5.20
2023-01-29T12:14:03.199Z,5.30
2023-01-29T12:16:50.381Z,5.40
2023-01-29T12:19:23.205Z,5.30
2023-01-29T12:21:56.033Z,5.40
2023-01-29T12:24:44.758Z,5.30
2023-01-29T12:27:17.728Z,5.30
2023-01-29T12:32:35.743Z,4.30
2023-01-29T12:35:30.726Z,5.30
2023-01-29T12:38:12.407Z,5.40
2023-01-29T12:40:47.953Z,5.40
2023-01-29T12:43:22.538Z,5.30
2023-01-29T12:45:53.187Z,5.30
2023-01-29T12:48:33.803Z,5.30
2023-01-29T12:51:24.314Z,5.30
2023-01-29T12:54:06.523Z,5.40
2023-01-29T12:56:38.823Z,5.30
2023-01-29T12:59:20.409Z,5.40
2023-01-29T13:01:56.798Z,9.10
2023-01-29T13:06:59.263Z,5.30
2023-01-29T13:09:30.218Z,5.40
2023-01-29T13:12:02.824Z,5.30
2023-01-29T13:14:50.175Z,5.40
2023-01-29T13:17:25.292Z,5.30
2023-01-29T13:19:55.566Z,5.30
2023-01-29T13:22:26.631Z,5.30
2023-01-29T13:25:04.101Z,5.40
2023-01-29T13:27:34.141Z,5.50
2023-01-29T13:32:35.155Z,5.80
2023-01-29T13:35:12.837Z,5.80
2023-01-29T13:37:48.267Z,5.80
2023-01-29T13:40:34.987Z,6.80
2023-01-29T13:43:03.270Z,5.80
2023-01-29T13:45:43.500Z,6.40
2023-01-29T13:48:37.052Z,5.70
2023-01-29T13:51:15.569Z,5.70
2023-01-29T13:56:28.605Z,5.70
2023-01-29T13:58:56.690Z,5.60
2023-01-29T14:01:48.533Z,5.80
2023-01-29T14:04:30.632Z,6.70
2023-01-29T14:06:59.596Z,5.80
2023-01-29T14:09:49.187Z,5.90
2023-01-29T14:12:22.613Z,5.90
2023-01-29T14:14:49.467Z,6.80
2023-01-29T14:17:18.826Z,6.00
2023-01-29T14:20:02.321Z,6.00
2023-01-29T14:22:30.435Z,5.90
2023-01-29T14:25:01.596Z,6.10
2023-01-29T14:30:07.250Z,6.10
2023-01-29T14:35:05.049Z,6.00
2023-01-29T14:40:22.720Z,6.10
2023-01-29T14:43:28.164Z,6.10
2023-01-29T14:48:48.734Z,5.90
2023-01-29T14:51:17.951Z,6.00
2023-01-29T14:53:55.986Z,6.00
2023-01-29T14:56:42.074Z,5.90
2023-01-29T14:59:16.817Z,5.90
2023-01-29T15:01:55.282Z,6.10
2023-01-29T15:04:32.674Z,6.00
2023-01-29T15:07:04.820Z,6.00
2023-01-29T15:09:51.219Z,5.90
2023-01-29T15:12:40.490Z,6.10
2023-01-29T15:15:37.749Z,6.10
2023-01-29T15:18:13.641Z,5.90
2023-01-29T15:20:42.442Z,5.90
2023-01-29T15:23:35.749Z,4.60
2023-01-29T15:26:11.803Z,5.80
2023-01-29T15:28:40.033Z,5.80
2023-01-29T15:31:13.251Z,5.90
2023-01-29T15:33:45.185Z,6.20
2023-01-29T15:36:22.522Z,5.80
2023-01-29T15:46:36.037Z,5.60
2023-01-29T15:49:08.900Z,5.60
2023-01-29T15:54:05.930Z,5.80
2023-01-29T15:56:43.177Z,5.70
2023-01-29T15:59:17.740Z,5.60
2023-01-29T16:04:18.747Z,5.60
2023-01-29T16:06:47.261Z,5.50
2023-01-29T16:09:19.179Z,5.50
2023-01-29T16:11:47.134Z,5.20
2023-01-29T16:14:18.967Z,5.40
2023-01-29T16:19:28.063Z,5.40
2023-01-29T16:22:01.454Z,5.50
2023-01-29T16:24:31.162Z,5.50
2023-01-29T16:27:01.056Z,5.40
2023-01-29T16:29:33.887Z,5.30
2023-01-29T16:32:02.660Z,5.30
2023-01-29T16:34:41.947Z,5.30
2023-01-29T16:37:23.600Z,5.30
2023-01-29T16:39:52.964Z,5.30
2023-01-29T16:42:23.041Z,5.20
2023-01-29T16:44:57.108Z,5.10
2023-01-29T16:53:25.125Z,9.00
2023-01-29T16:55:52.992Z,5.20
2023-01-29T16:58:22.860Z,5.20
2023-01-29T17:00:54.982Z,5.10
2023-01-29T17:13:34.573Z,4.80
2023-01-29T17:16:03.669Z,5.00
2023-01-29T17:40:57.697Z,4.90
2023-01-29T17:48:24.625Z,4.90
2023-01-29T17:50:54.993Z,5.00
2023-01-29T17:53:24.822Z,4.90
2023-01-29T17:58:27.907Z,4.30
2023-01-29T18:00:55.431Z,5.00
2023-01-29T18:08:32.696Z,5.00
2023-01-29T18:11:00.527Z,5.00
2023-01-29T18:18:23.816Z,5.00
2023-01-29T18:28:17.905Z,3.70
2023-01-29T18:30:47.186Z,4.60
2023-01-29T18:33:15.510Z,5.10
2023-01-29T18:55:23.313Z,5.10
2023-01-29T18:58:27.859Z,5.10
2023-01-29T19:10:34.303Z,5.10
2023-01-29T20:00:15.480Z,4.30
2023-01-29T20:07:41.092Z,5.20
2023-01-29T20:10:11.400Z,5.10
2023-01-29T21:04:23.601Z,4.80
2023-01-29T21:26:29.315Z,6.60
2023-01-29T21:46:11.968Z,5.80
2023-01-29T21:48:40.243Z,5.90
2023-01-29T21:56:04.502Z,6.00
2023-01-29T22:03:47.485Z,6.40
2023-01-29T22:23:30.699Z,6.00
2023-01-29T22:26:08.892Z,5.00
2023-01-29T22:31:04.356Z,6.30
2023-01-29T22:40:54.598Z,6.10
2023-01-29T22:43:22.276Z,6.10
2023-01-29T22:55:56.298Z,5.50
2023-01-29T23:00:51.333Z,7.50
2023-01-29T23:15:34.569Z,5.30
2023-01-29T23:38:00.728Z,7.90
2023-01-29T23:42:54.921Z,6.30
